createdAt,value
2019-04-21T00:00:20.265Z,13.79
2019-04-21T00:02:50.349Z,14.09
2019-04-21T00:05:38.555Z,13.56
2019-04-21T00:08:12.799Z,14.15
2019-04-21T00:10:40.633Z,13.87
2019-04-21T00:13:04.948Z,13.55
2019-04-21T00:25:55.162Z,13.22
2019-04-21T00:28:42.129Z,12.65
2019-04-21T00:31:04.346Z,12.70
2019-04-21T00:33:24.362Z,12.86
2019-04-21T00:35:56.274Z,12.68
2019-04-21T00:38:40.291Z,12.51
2019-04-21T00:41:09.226Z,12.92
2019-04-21T00:43:35.098Z,12.46
2019-04-21T00:45:57.605Z,12.60
2019-04-21T00:48:41.312Z,12.24
2019-04-21T00:51:25.172Z,11.99
2019-04-21T00:53:51.888Z,12.21
2019-04-21T00:56:15.603Z,12.18
2019-04-21T00:58:48.114Z,11.89
2019-04-21T01:01:15.172Z,12.10
2019-04-21T01:03:46.245Z,11.58
2019-04-21T01:06:16.111Z,12.09
2019-04-21T01:08:46.809Z,11.91
2019-04-21T01:11:17.952Z,12.05
2019-04-21T01:13:45.452Z,11.96
2019-04-21T01:16:21.234Z,11.98
2019-04-21T01:18:45.898Z,12.30
2019-04-21T01:20:55.310Z,12.33
2019-04-21T01:23:23.835Z,12.27
2019-04-21T01:26:10.741Z,12.26
2019-04-21T01:28:41.045Z,12.14
2019-04-21T01:31:08.853Z,12.07
2019-04-21T01:33:44.691Z,12.11
2019-04-21T01:36:11.019Z,12.09
2019-04-21T01:38:48.206Z,12.13
2019-04-21T01:41:21.853Z,11.79
2019-04-21T01:43:42.762Z,11.69
2019-04-21T01:46:13.942Z,11.65
2019-04-21T01:48:41.516Z,11.41
2019-04-21T01:51:14.308Z,11.40
2019-04-21T01:53:48.205Z,11.72
2019-04-21T01:56:31.795Z,11.38
2019-04-21T01:58:48.244Z,11.14
2019-04-21T02:01:29.718Z,11.11
2019-04-21T02:04:16.708Z,10.87
2019-04-21T02:06:44.437Z,10.87
2019-04-21T02:08:58.049Z,10.72
2019-04-21T02:11:41.237Z,10.60
2019-04-21T02:16:34.690Z,10.43
2019-04-21T02:18:58.573Z,10.45
2019-04-21T02:21:30.461Z,10.43
2019-04-21T02:26:33.596Z,10.08
2019-04-21T02:29:10.755Z,10.12
2019-04-21T02:34:16.932Z,9.83
2019-04-21T02:39:21.001Z,9.94
2019-04-21T02:42:01.844Z,9.68
2019-04-21T02:44:17.842Z,9.61
2019-04-21T02:49:22.991Z,9.45
2019-04-21T02:51:55.059Z,9.30
2019-04-21T02:54:41.040Z,9.31
2019-04-21T02:56:53.097Z,9.13
2019-04-21T02:59:37.491Z,9.10
2019-04-21T03:02:16.239Z,9.27
2019-04-21T03:04:38.423Z,8.97
2019-04-21T03:07:20.996Z,9.00
2019-04-21T03:09:57.920Z,8.89
2019-04-21T03:14:56.477Z,8.84
2019-04-21T03:17:26.687Z,8.66
2019-04-21T03:22:20.096Z,8.60
2019-04-21T03:25:04.481Z,8.58
2019-04-21T03:29:54.712Z,8.29
2019-04-21T03:32:55.323Z,8.20
2019-04-21T03:37:23.142Z,8.32
2019-04-21T03:39:54.432Z,8.33
2019-04-21T03:49:54.533Z,7.75
2019-04-21T03:55:48.846Z,7.81
2019-04-21T03:58:07.059Z,7.67
2019-04-21T04:00:44.957Z,7.58
2019-04-21T04:03:35.399Z,7.67
2019-04-21T04:06:03.629Z,7.55
2019-04-21T04:08:51.706Z,7.65
2019-04-21T04:23:47.291Z,7.38
2019-04-21T04:26:19.377Z,7.53
2019-04-21T04:29:05.347Z,7.50
2019-04-21T04:31:28.973Z,7.52
2019-04-21T04:33:57.761Z,7.72
2019-04-21T04:36:23.909Z,7.55
2019-04-21T04:41:24.938Z,7.67
2019-04-21T04:43:54.584Z,7.48
2019-04-21T04:46:28.505Z,7.55
2019-04-21T04:48:51.658Z,7.69
2019-04-21T04:53:48.799Z,7.79
2019-04-21T04:59:20.045Z,7.82
2019-04-21T05:04:10.363Z,7.75
2019-04-21T05:19:10.652Z,9.10
2019-04-21T05:23:48.522Z,10.03
2019-04-21T05:26:10.955Z,10.52
2019-04-21T05:28:42.053Z,10.80
2019-04-21T05:31:26.345Z,11.11
2019-04-21T05:34:04.762Z,11.30
2019-04-21T05:36:35.305Z,11.57
2019-04-21T05:39:03.823Z,11.63
2019-04-21T05:41:26.209Z,11.68
2019-04-21T05:44:06.242Z,11.79
2019-04-21T05:46:46.395Z,11.92
2019-04-21T05:49:21.976Z,11.83
2019-04-21T05:51:59.809Z,12.10
2019-04-21T05:57:05.983Z,12.12
2019-04-21T05:59:40.025Z,12.26
2019-04-21T06:02:15.201Z,12.25
2019-04-21T06:07:12.229Z,12.25
2019-04-21T06:09:48.995Z,12.19
2019-04-21T06:12:08.622Z,12.27
2019-04-21T06:14:46.456Z,11.92
2019-04-21T06:17:19.291Z,11.92
2019-04-21T06:19:45.048Z,11.88
2019-04-21T06:22:09.146Z,11.96
2019-04-21T06:24:54.231Z,12.00
2019-04-21T06:27:14.794Z,12.35
2019-04-21T06:29:46.623Z,12.24
2019-04-21T06:32:38.430Z,12.30
2019-04-21T06:35:02.513Z,12.64
2019-04-21T06:37:39.044Z,12.35
2019-04-21T06:42:16.208Z,12.48
2019-04-21T06:44:54.557Z,12.78
2019-04-21T06:47:24.665Z,12.84
2019-04-21T06:49:45.800Z,13.08
2019-04-21T06:52:30.552Z,12.82
2019-04-21T06:54:53.314Z,12.91
2019-04-21T06:57:17.033Z,13.02
2019-04-21T06:59:43.526Z,13.09
2019-04-21T07:02:30.679Z,13.63
2019-04-21T07:04:50.181Z,13.28
2019-04-21T07:07:19.735Z,13.60
2019-04-21T07:09:51.172Z,13.53
2019-04-21T07:12:13.828Z,14.09
2019-04-21T07:14:47.502Z,14.15
2019-04-21T07:17:24.412Z,14.91
2019-04-21T07:19:50.007Z,14.54
2019-04-21T07:22:17.773Z,14.68
2019-04-21T07:24:52.008Z,14.58
2019-04-21T07:27:26.536Z,15.05
2019-04-21T07:29:55.157Z,14.99
2019-04-21T07:32:14.108Z,14.84
2019-04-21T07:34:51.486Z,15.36
2019-04-21T07:37:17.351Z,15.17
2019-04-21T07:39:45.062Z,15.44
2019-04-21T07:42:13.504Z,15.44
2019-04-21T07:44:44.176Z,16.03
2019-04-21T07:47:23.433Z,16.06
2019-04-21T07:49:59.198Z,16.43
2019-04-21T07:52:30.113Z,16.52
2019-04-21T07:55:11.344Z,16.71
2019-04-21T07:57:23.786Z,16.52
2019-04-21T08:00:21.282Z,16.72
2019-04-21T08:02:30.792Z,16.73
2019-04-21T08:05:07.653Z,16.74
2019-04-21T08:07:32.335Z,17.55
2019-04-21T08:09:59.611Z,17.27
2019-04-21T08:12:24.266Z,17.26
2019-04-21T08:15:04.080Z,17.48
2019-04-21T08:17:30.493Z,17.42
2019-04-21T08:19:53.882Z,18.03
2019-04-21T08:22:32.185Z,18.01
2019-04-21T08:25:02.828Z,18.13
2019-04-21T08:27:35.415Z,18.39
2019-04-21T08:30:01.682Z,18.21
2019-04-21T08:32:46.222Z,18.56
2019-04-21T08:35:22.441Z,18.56
2019-04-21T08:37:30.938Z,18.77
2019-04-21T08:42:33.178Z,19.53
2019-04-21T08:45:00.325Z,19.45
2019-04-21T08:47:33.313Z,19.67
2019-04-21T08:50:00.695Z,19.78
2019-04-21T08:55:15.615Z,19.86
2019-04-21T08:58:08.054Z,19.92
2019-04-21T09:00:49.463Z,19.88
2019-04-21T09:03:17.748Z,19.94
2019-04-21T09:05:44.459Z,20.29
2019-04-21T09:08:20.297Z,20.53
2019-04-21T09:10:47.010Z,20.28
2019-04-21T09:13:17.205Z,20.20
2019-04-21T09:15:45.816Z,20.17
2019-04-21T09:18:15.811Z,20.44
2019-04-21T09:20:52.649Z,20.58
2019-04-21T09:23:13.315Z,20.52
2019-04-21T09:28:14.644Z,20.73
2019-04-21T09:30:37.471Z,20.59
2019-04-21T09:33:01.643Z,20.97
2019-04-21T09:35:29.757Z,20.87
2019-04-21T09:38:07.812Z,20.87
2019-04-21T09:40:35.983Z,20.75
2019-04-21T09:43:03.234Z,20.79
2019-04-21T09:45:30.648Z,20.81
2019-04-21T09:48:06.390Z,20.92
2019-04-21T09:50:29.612Z,20.92
2019-04-21T09:53:05.467Z,21.13
2019-04-21T09:55:36.422Z,21.06
2019-04-21T09:58:12.393Z,21.19
2019-04-21T10:00:37.932Z,21.21
2019-04-21T10:03:04.631Z,21.19
2019-04-21T10:05:29.797Z,21.21
2019-04-21T10:08:01.052Z,21.39
2019-04-21T10:10:29.724Z,21.47
2019-04-21T10:12:58.600Z,21.84
2019-04-21T10:15:28.294Z,21.97
2019-04-21T10:18:10.919Z,22.23
2019-04-21T10:20:40.616Z,21.81
2019-04-21T10:23:09.282Z,22.03
2019-04-21T10:25:38.713Z,21.93
2019-04-21T10:28:07.454Z,22.20
2019-04-21T10:30:36.384Z,21.87
2019-04-21T10:33:06.154Z,22.09
2019-04-21T10:35:35.249Z,22.06
2019-04-21T10:38:16.971Z,22.19
2019-04-21T10:40:36.873Z,22.54
2019-04-21T10:43:06.147Z,22.91
2019-04-21T10:45:34.945Z,22.59
2019-04-21T10:48:05.055Z,22.79
2019-04-21T10:50:34.825Z,22.63
2019-04-21T10:53:05.042Z,22.73
2019-04-21T10:55:53.571Z,23.32
2019-04-21T10:58:11.328Z,23.10
2019-04-21T11:00:42.279Z,23.04
2019-04-21T11:03:29.165Z,23.21
2019-04-21T11:06:01.062Z,23.15
2019-04-21T11:08:35.943Z,23.06
2019-04-21T11:11:01.617Z,23.22
2019-04-21T11:13:30.800Z,23.15
2019-04-21T11:15:59.445Z,23.27
2019-04-21T11:18:28.220Z,23.48
2019-04-21T11:20:56.828Z,23.32
2019-04-21T11:23:25.356Z,23.56
2019-04-21T11:25:53.981Z,23.63
2019-04-21T11:28:23.029Z,23.46
2019-04-21T11:30:52.967Z,23.59
2019-04-21T11:33:22.823Z,23.74
2019-04-21T11:35:53.192Z,23.46
2019-04-21T11:38:55.822Z,23.67
2019-04-21T11:41:09.745Z,23.55
2019-04-21T11:43:39.113Z,23.58
2019-04-21T11:46:08.572Z,23.71
2019-04-21T11:48:37.288Z,23.70
2019-04-21T11:51:06.866Z,23.64
2019-04-21T11:53:36.917Z,23.52
2019-04-21T11:56:06.925Z,23.94
2019-04-21T11:58:36.086Z,23.83
2019-04-21T12:01:05.668Z,24.06
2019-04-21T12:03:35.637Z,23.89
2019-04-21T12:06:05.769Z,24.24
2019-04-21T12:08:40.803Z,24.34
2019-04-21T12:11:05.361Z,23.99
2019-04-21T12:13:34.386Z,24.21
2019-04-21T12:16:03.297Z,23.67
2019-04-21T12:18:33.901Z,23.93
2019-04-21T12:21:03.283Z,24.08
2019-04-21T12:23:32.402Z,24.13
2019-04-21T12:26:01.527Z,24.03
2019-04-21T12:28:30.388Z,24.16
2019-04-21T12:31:00.097Z,24.32
2019-04-21T12:33:45.904Z,24.31
2019-04-21T12:36:15.876Z,24.12
2019-04-21T12:38:50.969Z,24.37
2019-04-21T12:41:15.014Z,24.36
2019-04-21T12:43:44.533Z,24.17
2019-04-21T12:46:13.990Z,24.34
2019-04-21T12:48:44.136Z,24.28
2019-04-21T12:51:12.864Z,24.38
2019-04-21T12:53:41.695Z,24.35
2019-04-21T12:56:11.628Z,24.46
2019-04-21T12:58:41.531Z,24.02
2019-04-21T13:01:10.471Z,24.31
2019-04-21T13:03:39.703Z,24.18
2019-04-21T13:06:09.791Z,24.07
2019-04-21T13:08:45.691Z,24.79
2019-04-21T13:11:09.576Z,24.35
2019-04-21T13:13:39.994Z,24.38
2019-04-21T13:16:09.599Z,24.22
2019-04-21T13:18:39.571Z,24.56
2019-04-21T13:21:08.314Z,25.00
2019-04-21T13:23:37.026Z,24.64
2019-04-21T13:26:06.670Z,24.69
2019-04-21T13:28:37.705Z,24.73
2019-04-21T13:31:06.555Z,24.83
2019-04-21T13:33:35.316Z,24.47
2019-04-21T13:36:05.123Z,24.78
2019-04-21T13:38:40.517Z,24.52
2019-04-21T13:41:23.082Z,24.60
2019-04-21T13:43:37.087Z,24.53
2019-04-21T13:46:05.991Z,24.58
2019-04-21T13:48:34.842Z,24.57
2019-04-21T13:51:04.919Z,24.61
2019-04-21T13:53:34.893Z,24.99
2019-04-21T13:56:06.697Z,24.91
2019-04-21T13:58:35.409Z,24.86
2019-04-21T14:01:03.939Z,24.90
2019-04-21T14:03:33.405Z,24.83
2019-04-21T14:06:02.541Z,24.76
2019-04-21T14:08:31.401Z,24.54
2019-04-21T14:10:59.961Z,24.91
2019-04-21T14:13:28.403Z,24.77
2019-04-21T14:15:57.947Z,24.61
2019-04-21T14:18:26.910Z,24.81
2019-04-21T14:20:55.625Z,25.03
2019-04-21T14:23:32.422Z,24.77
2019-04-21T14:25:55.607Z,24.98
2019-04-21T14:28:24.200Z,25.06
2019-04-21T14:30:52.718Z,24.83
2019-04-21T14:33:23.505Z,24.83
2019-04-21T14:35:52.723Z,24.68
2019-04-21T14:38:22.678Z,24.76
2019-04-21T14:40:52.436Z,24.50
2019-04-21T14:43:21.709Z,24.93
2019-04-21T14:46:03.810Z,25.08
2019-04-21T14:48:50.894Z,24.70
2019-04-21T14:51:29.370Z,24.69
2019-04-21T14:53:59.751Z,24.92
2019-04-21T14:56:29.258Z,24.83
2019-04-21T14:58:59.499Z,24.76
2019-04-21T15:01:28.286Z,24.68
2019-04-21T15:03:57.537Z,24.76
2019-04-21T15:06:27.134Z,24.66
2019-04-21T15:08:57.443Z,24.84
2019-04-21T15:11:26.311Z,24.81
2019-04-21T15:13:55.908Z,24.86
2019-04-21T15:16:24.982Z,24.79
2019-04-21T15:18:54.669Z,24.56
2019-04-21T15:21:23.602Z,24.60
2019-04-21T15:23:52.135Z,24.53
2019-04-21T15:26:22.003Z,24.55
2019-04-21T15:28:51.017Z,24.72
2019-04-21T15:31:27.393Z,24.62
2019-04-21T15:33:49.793Z,24.57
2019-04-21T15:36:20.866Z,24.34
2019-04-21T15:38:49.718Z,24.43
2019-04-21T15:41:18.620Z,24.50
2019-04-21T15:43:47.302Z,24.50
2019-04-21T15:46:15.938Z,24.51
2019-04-21T15:48:44.820Z,24.48
2019-04-21T15:51:13.668Z,24.53
2019-04-21T15:53:43.999Z,24.40
2019-04-21T15:56:23.098Z,24.36
2019-04-21T15:58:59.107Z,24.63
2019-04-21T16:01:30.378Z,24.45
2019-04-21T16:04:00.582Z,24.24
2019-04-21T16:06:29.640Z,24.29
2019-04-21T16:09:00.849Z,24.47
2019-04-21T16:11:28.583Z,24.24
2019-04-21T16:13:57.507Z,24.23
2019-04-21T16:16:28.326Z,24.18
2019-04-21T16:18:56.444Z,24.18
2019-04-21T16:21:26.240Z,24.36
2019-04-21T16:23:56.341Z,24.41
2019-04-21T16:26:26.639Z,24.46
2019-04-21T16:28:55.382Z,24.31
2019-04-21T16:31:24.767Z,24.24
2019-04-21T16:33:54.651Z,24.08
2019-04-21T16:36:23.410Z,24.09
2019-04-21T16:38:51.926Z,24.12
2019-04-21T16:41:20.439Z,24.00
2019-04-21T16:43:49.262Z,24.01
2019-04-21T16:46:18.155Z,23.99
2019-04-21T16:48:46.609Z,24.04
2019-04-21T16:51:15.452Z,23.90
2019-04-21T16:53:46.120Z,23.81
2019-04-21T16:56:18.943Z,23.80
2019-04-21T16:58:52.603Z,23.82
2019-04-21T17:01:30.110Z,23.73
2019-04-21T17:04:00.306Z,23.71
2019-04-21T17:06:29.193Z,23.67
2019-04-21T17:08:58.978Z,23.62
2019-04-21T17:11:31.579Z,23.54
2019-04-21T17:13:58.218Z,23.64
2019-04-21T17:16:48.217Z,23.51
2019-04-21T17:19:05.131Z,23.57
2019-04-21T17:21:28.065Z,23.25
2019-04-21T17:23:58.757Z,23.26
2019-04-21T17:26:28.876Z,23.23
2019-04-21T17:28:58.677Z,23.20
2019-04-21T17:31:28.823Z,23.09
2019-04-21T17:34:06.415Z,23.22
2019-04-21T17:36:29.320Z,22.85
2019-04-21T17:38:58.055Z,22.75
2019-04-21T17:41:35.329Z,22.69
2019-04-21T17:43:58.270Z,22.49
2019-04-21T17:46:36.613Z,22.40
2019-04-21T17:48:57.266Z,22.44
2019-04-21T17:51:51.775Z,22.36
2019-04-21T17:54:23.602Z,22.03
2019-04-21T17:57:10.965Z,21.66
2019-04-21T17:59:51.049Z,21.55
2019-04-21T18:02:03.905Z,21.49
2019-04-21T18:04:34.804Z,21.04
2019-04-21T18:07:04.863Z,20.92
2019-04-21T18:09:44.040Z,20.80
2019-04-21T18:12:11.491Z,20.52
2019-04-21T18:14:22.305Z,20.22
2019-04-21T18:16:53.393Z,20.16
2019-04-21T18:19:27.903Z,19.65
2019-04-21T18:21:58.301Z,19.55
2019-04-21T18:24:35.317Z,19.16
2019-04-21T18:26:59.742Z,18.89
2019-04-21T18:29:25.613Z,18.82
2019-04-21T18:31:55.901Z,18.75
2019-04-21T18:34:43.965Z,18.46
2019-04-21T18:37:33.068Z,18.48
2019-04-21T18:40:05.304Z,18.21
2019-04-21T18:42:45.411Z,18.01
2019-04-21T18:48:04.873Z,18.09
2019-04-21T18:50:46.100Z,17.89
2019-04-21T18:53:41.407Z,17.82
2019-04-21T18:56:01.858Z,17.87
2019-04-21T18:58:26.768Z,17.72
2019-04-21T19:01:04.532Z,17.50
2019-04-21T19:03:35.154Z,17.45
2019-04-21T19:06:03.975Z,17.50
2019-04-21T19:08:46.833Z,17.50
2019-04-21T19:11:19.641Z,17.65
2019-04-21T19:14:17.633Z,17.63
2019-04-21T19:19:23.026Z,17.41
2019-04-21T19:21:28.397Z,17.39
2019-04-21T19:24:11.527Z,17.36
2019-04-21T19:26:49.717Z,17.16
2019-04-21T19:29:14.751Z,17.01
2019-04-21T19:31:38.285Z,16.99
2019-04-21T19:33:59.425Z,17.08
2019-04-21T19:36:17.570Z,16.77
2019-04-21T19:38:58.208Z,16.65
2019-04-21T19:41:32.735Z,16.72
2019-04-21T19:44:06.482Z,16.83
2019-04-21T19:46:33.015Z,16.68
2019-04-21T19:49:15.199Z,16.60
2019-04-21T19:51:31.398Z,16.55
2019-04-21T19:53:55.995Z,16.50
2019-04-21T19:56:18.554Z,16.34
2019-04-21T19:58:47.856Z,16.42
2019-04-21T20:01:17.550Z,16.55
2019-04-21T20:03:48.658Z,16.52
2019-04-21T20:06:36.164Z,16.59
2019-04-21T20:09:11.703Z,16.30
2019-04-21T20:11:33.660Z,16.27
2019-04-21T20:14:45.036Z,16.17
2019-04-21T20:16:41.356Z,16.20
2019-04-21T20:18:55.318Z,15.88
2019-04-21T20:21:20.780Z,15.72
2019-04-21T20:23:49.521Z,15.65
2019-04-21T20:26:23.215Z,15.60
2019-04-21T20:29:02.455Z,15.58
2019-04-21T20:31:37.264Z,15.46
2019-04-21T20:34:16.175Z,16.13
2019-04-21T20:36:41.761Z,15.63
2019-04-21T20:38:55.883Z,15.52
2019-04-21T20:41:32.534Z,15.28
2019-04-21T20:44:05.919Z,15.02
2019-04-21T20:46:36.718Z,14.91
2019-04-21T20:49:02.740Z,14.69
2019-04-21T20:51:37.641Z,14.58
2019-04-21T20:54:01.789Z,14.30
2019-04-21T20:56:41.031Z,14.19
2019-04-21T20:59:07.726Z,14.02
2019-04-21T21:01:39.478Z,13.87
2019-04-21T21:04:07.447Z,14.03
2019-04-21T21:06:36.014Z,13.79
2019-04-21T21:09:09.103Z,13.68
2019-04-21T21:11:43.542Z,13.75
2019-04-21T21:14:11.898Z,13.67
2019-04-21T21:16:47.585Z,13.58
2019-04-21T21:19:18.149Z,13.37
2019-04-21T21:21:34.471Z,13.17
2019-04-21T21:24:08.565Z,13.22
2019-04-21T21:26:44.103Z,13.01
2019-04-21T21:29:02.968Z,12.95
2019-04-21T21:31:42.125Z,12.81
2019-04-21T21:34:15.232Z,12.78
2019-04-21T21:36:41.840Z,12.72
2019-04-21T21:39:11.403Z,12.67
2019-04-21T21:41:31.856Z,12.51
2019-04-21T21:44:01.786Z,12.54
2019-04-21T21:46:40.158Z,12.43
2019-04-21T21:49:06.137Z,12.32
2019-04-21T21:51:39.791Z,12.22
2019-04-21T21:53:57.072Z,12.22
2019-04-21T21:56:26.753Z,12.12
2019-04-21T21:58:56.977Z,11.92
2019-04-21T22:01:36.518Z,11.93
2019-04-21T22:04:04.925Z,11.84
2019-04-21T22:06:40.133Z,12.12
2019-04-21T22:08:58.515Z,11.81
2019-04-21T22:11:27.228Z,11.61
2019-04-21T22:14:02.761Z,11.59
2019-04-21T22:16:38.923Z,11.49
2019-04-21T22:19:17.610Z,11.29
2019-04-21T22:21:47.744Z,11.26
2019-04-21T22:24:04.794Z,11.17
2019-04-21T22:26:27.295Z,11.12
2019-04-21T22:28:55.958Z,11.22
2019-04-21T22:31:29.039Z,10.94
2019-04-21T22:34:00.329Z,11.01
2019-04-21T22:36:35.513Z,10.89
2019-04-21T22:39:13.397Z,10.84
2019-04-21T22:41:32.676Z,10.51
2019-04-21T22:43:58.970Z,10.68
2019-04-21T22:46:26.367Z,10.72
2019-04-21T22:48:59.763Z,10.82
2019-04-21T22:51:32.399Z,10.56
2019-04-21T22:53:57.991Z,10.50
2019-04-21T22:56:31.639Z,10.38
2019-04-21T22:58:57.117Z,10.33
2019-04-21T23:01:33.364Z,10.33
2019-04-21T23:04:00.567Z,10.21
2019-04-21T23:06:30.553Z,10.15
2019-04-21T23:08:57.106Z,10.23
2019-04-21T23:11:27.951Z,10.36
2019-04-21T23:14:03.983Z,10.14
2019-04-21T23:16:32.218Z,10.08
2019-04-21T23:19:15.888Z,9.88
2019-04-21T23:21:47.415Z,10.02
2019-04-21T23:24:17.811Z,9.65
2019-04-21T23:26:42.000Z,9.80
2019-04-21T23:29:17.445Z,10.05
2019-04-21T23:31:46.080Z,10.07
2019-04-21T23:33:58.107Z,9.75
2019-04-21T23:36:31.426Z,9.78
2019-04-21T23:38:58.512Z,9.65
2019-04-21T23:41:35.018Z,9.66
2019-04-21T23:44:02.956Z,9.63
2019-04-21T23:46:31.993Z,9.77
2019-04-21T23:49:12.689Z,9.68
2019-04-21T23:51:39.808Z,9.59
2019-04-21T23:53:59.450Z,9.89
2019-04-21T23:56:34.050Z,9.55
2019-04-21T23:59:03.131Z,9.90
